Time;durP1;ratioP1;P1;durP2;ratioP2;P2;SDS_P1;SDS_P2;PMS_P1;PMS_P2;Temp;Humidity;BMP_temperature;BMP_pressure;BME280_temperature;BME280_humidity;BME280_pressure;Samples;Min_cycle;Max_cycle;Signal;HPM_P1;HPM_P2
2021/11/01 00:01:48;;;;;;;;;2.25;1.00;;;;;12.00;83.16;99818.44;5047164;28;45478;-61
2021/11/01 00:04:13;;;;;;;;;8.00;2.00;;;;;11.91;83.22;99799.81;5053862;28;45376;-61
2021/11/01 00:06:38;;;;;;;;;3.25;1.75;;;;;11.95;83.27;99811.78;5059389;28;45648;-61
2021/11/01 00:09:04;;;;;;;;;3.50;3.00;;;;;11.94;83.24;99805.72;5059719;28;46042;-60
2021/11/01 00:11:30;;;;;;;;;3.00;2.00;;;;;11.90;83.61;99800.75;5059395;28;45286;-59
2021/11/01 00:13:55;;;;;;;;;3.00;2.00;;;;;11.90;83.65;99804.19;5060050;28;45308;-58
2021/11/01 00:16:21;;;;;;;;;3.75;2.00;;;;;11.86;83.86;99803.50;5061134;28;45504;-59
2021/11/01 00:18:47;;;;;;;;;2.00;2.00;;;;;11.86;83.86;99807.84;5059665;28;46062;-58
2021/11/01 00:21:12;;;;;;;;;3.50;2.25;;;;;11.85;84.16;99799.22;5059466;28;45211;-59
2021/11/01 00:23:38;;;;;;;;;2.25;2.25;;;;;11.84;84.10;99794.06;5052841;28;45381;-59
2021/11/01 00:26:03;;;;;;;;;3.00;1.00;;;;;11.79;84.48;99811.66;5057731;28;45524;-59
2021/11/01 00:28:29;;;;;;;;;2.00;1.00;;;;;11.77;84.39;99796.06;5059582;28;46299;-58
2021/11/01 00:30:58;;;;;;;;;2.00;2.00;;;;;11.76;84.59;99801.34;5061967;28;45521;-59
2021/11/01 00:33:26;;;;;;;;;4.25;3.50;;;;;11.74;84.85;99801.44;5061238;28;45288;-60
2021/11/01 00:35:52;;;;;;;;;3.00;2.25;;;;;11.74;84.91;99800.59;5057446;28;45223;-58
2021/11/01 00:38:18;;;;;;;;;2.00;2.00;;;;;11.72;84.98;99785.03;5058655;28;46162;-59
2021/11/01 00:40:44;;;;;;;;;3.25;2.00;;;;;11.71;85.28;99780.75;5063325;28;45620;-59
2021/11/01 00:43:09;;;;;;;;;6.25;2.00;;;;;11.72;85.22;99781.59;5053549;28;45220;-58
2021/11/01 00:45:35;;;;;;;;;5.50;2.00;;;;;11.70;85.29;99773.03;5062502;28;45417;-58
2021/11/01 00:48:01;;;;;;;;;2.50;1.00;;;;;11.70;85.63;99773.03;5062619;28;46979;-58
2021/11/01 00:50:27;;;;;;;;;2.75;2.00;;;;;11.67;85.49;99776.63;5062891;28;45350;-58
2021/11/01 00:52:55;;;;;;;;;2.50;1.50;;;;;11.64;85.86;99768.97;5062526;28;45350;-58
2021/11/01 00:55:24;;;;;;;;;3.75;3.00;;;;;11.67;85.70;99761.00;5062669;28;45499;-58
2021/11/01 00:57:50;;;;;;;;;1.00;1.00;;;;;11.67;85.76;99753.19;5064585;28;46147;-58
2021/11/01 01:00:16;;;;;;;;;3.75;3.25;;;;;11.66;85.54;99754.13;5062709;28;45473;-58
2021/11/01 01:02:44;;;;;;;;;4.00;1.75;;;;;11.63;85.36;99769.03;5063609;28;45402;-58
2021/11/01 01:05:10;;;;;;;;;3.00;1.00;;;;;11.62;85.82;99756.94;5063298;28;45462;-58
2021/11/01 01:07:35;;;;;;;;;1.25;1.25;;;;;11.60;85.76;99746.56;5062255;28;46235;-58
2021/11/01 01:10:01;;;;;;;;;2.00;1.75;;;;;11.61;85.60;99747.41;5062173;28;45402;-58
2021/11/01 01:12:27;;;;;;;;;2.75;2.75;;;;;11.58;85.88;99751.84;5062678;28;45356;-58
2021/11/01 01:15:01;;;;;;;;;1.50;1.00;;;;;11.58;86.18;99764.88;5062248;28;45224;-58
2021/11/01 01:17:26;;;;;;;;;3.00;2.00;;;;;11.64;85.87;99750.75;5062281;28;46952;-58
2021/11/01 01:19:58;;;;;;;;;3.25;1.25;;;;;11.69;85.97;99758.31;5061072;28;45284;-58
2021/11/01 01:22:29;;;;;;;;;1.00;1.00;;;;;11.74;86.00;99761.53;5062011;28;45358;-58
2021/11/01 01:25:24;;;;;;;;;3.00;1.00;;;;;11.77;85.63;99745.78;5055299;28;45378;-57
2021/11/01 01:27:52;;;;;;;;;3.75;0.25;;;;;11.76;85.80;99731.91;5048214;28;46274;-58
2021/11/01 01:30:19;;;;;;;;;2.00;1.00;;;;;11.74;85.85;99745.94;5062235;28;45438;-58
2021/11/01 01:32:45;;;;;;;;;2.00;1.75;;;;;11.72;85.90;99727.78;5062518;28;45338;-58
2021/11/01 01:35:12;;;;;;;;;3.75;2.00;;;;;11.72;86.12;99750.38;5062235;28;45309;-58
2021/11/01 01:37:37;;;;;;;;;3.00;1.75;;;;;11.72;85.83;99748.59;5051520;28;46428;-58
2021/11/01 01:40:06;;;;;;;;;3.00;1.75;;;;;11.72;85.84;99733.00;5048531;28;45272;-58
2021/11/01 01:42:33;;;;;;;;;2.75;1.00;;;;;11.68;85.96;99749.69;5061103;28;45410;-58
2021/11/01 01:44:58;;;;;;;;;6.50;2.00;;;;;11.66;86.03;99716.84;5062270;28;45256;-57
2021/11/01 01:47:24;;;;;;;;;4.50;1.50;;;;;11.64;86.22;99740.34;5049064;28;46286;-58
2021/11/01 01:49:49;;;;;;;;;4.00;1.50;;;;;11.63;86.04;99743.00;5061680;28;45331;-58
2021/11/01 01:52:15;;;;;;;;;2.75;1.25;;;;;11.61;86.00;99729.19;5061992;28;45212;-58
2021/11/01 01:54:40;;;;;;;;;1.50;1.50;;;;;11.60;86.00;99717.94;5061558;28;45399;-58
2021/11/01 01:57:06;;;;;;;;;1.50;1.25;;;;;11.57;85.67;99724.16;5061965;28;46081;-58
2021/11/01 01:59:31;;;;;;;;;1.75;1.00;;;;;11.55;86.01;99725.13;5061624;28;45286;-59
2021/11/01 02:01:57;;;;;;;;;1.25;0.00;;;;;11.54;85.80;99733.88;5061778;28;45401;-59
2021/11/01 02:04:24;;;;;;;;;2.00;2.00;;;;;11.50;85.82;99711.50;5060335;28;45398;-59
2021/11/01 02:06:55;;;;;;;;;2.75;2.75;;;;;11.55;85.72;99730.34;5061528;28;46369;-58
2021/11/01 02:09:27;;;;;;;;;3.50;1.00;;;;;11.53;85.73;99713.97;5061519;28;45721;-58
2021/11/01 02:12:05;;;;;;;;;3.00;1.25;;;;;11.51;85.45;99742.66;5061807;28;45331;-58
2021/11/01 02:14:42;;;;;;;;;2.00;0.25;;;;;11.49;85.59;99725.44;5061479;28;45268;-58
2021/11/01 02:17:08;;;;;;;;;5.50;0.75;;;;;11.47;85.48;99716.88;5061518;28;46987;-58
2021/11/01 02:19:45;;;;;;;;;3.25;1.00;;;;;11.44;85.44;99723.06;5061389;28;45547;-58
2021/11/01 02:22:14;;;;;;;;;3.00;1.00;;;;;11.40;85.30;99733.66;5059993;28;45624;-58
2021/11/01 02:24:46;;;;;;;;;3.00;2.00;;;;;11.38;85.53;99728.53;5053454;28;45343;-58
2021/11/01 02:27:13;;;;;;;;;2.00;1.00;;;;;11.38;85.45;99740.69;5061156;28;46214;-58
2021/11/01 02:29:46;;;;;;;;;3.00;2.00;;;;;11.33;85.35;99729.66;5061417;28;45359;-58
2021/11/01 02:32:12;;;;;;;;;3.50;0.00;;;;;11.36;85.45;99740.78;5061414;28;45327;-58
2021/11/01 02:34:40;;;;;;;;;1.00;1.00;;;;;11.36;85.38;99737.31;5061214;28;45374;-58
2021/11/01 02:37:05;;;;;;;;;3.00;1.00;;;;;11.33;85.55;99733.13;5050757;28;46163;-58
2021/11/01 02:39:32;;;;;;;;;5.00;2.00;;;;;11.34;85.66;99737.41;5060926;28;45286;-58
2021/11/01 02:42:00;;;;;;;;;4.25;1.00;;;;;11.33;85.40;99734.88;5062158;28;45244;-58
2021/11/01 02:44:28;;;;;;;;;2.00;0.75;;;;;11.33;85.65;99740.06;5061210;28;45219;-58
2021/11/01 02:46:54;;;;;;;;;1.00;1.00;;;;;11.30;85.78;99735.88;5060683;28;46318;-57
2021/11/01 02:49:19;;;;;;;;;0.25;0.25;;;;;11.30;85.79;99741.06;5046412;28;45399;-58
2021/11/01 02:51:45;;;;;;;;;3.50;1.00;;;;;11.29;85.62;99741.97;5058678;28;45718;-58
2021/11/01 02:54:11;;;;;;;;;3.00;1.00;;;;;11.30;85.77;99735.03;5060318;28;45599;-58
2021/11/01 02:56:37;;;;;;;;;2.50;1.75;;;;;11.26;85.74;99719.56;5060608;28;45364;-58
2021/11/01 02:59:04;;;;;;;;;2.25;0.50;;;;;11.25;85.95;99720.47;5060918;28;45390;-58
2021/11/01 03:01:30;;;;;;;;;1.00;1.00;;;;;11.21;85.91;99716.34;5060599;28;45481;-59
2021/11/01 03:03:56;;;;;;;;;2.00;2.00;;;;;11.19;85.95;99718.13;5059656;28;45520;-59
2021/11/01 03:06:24;;;;;;;;;1.50;1.50;;;;;11.15;86.44;99716.59;5060402;28;45390;-59
2021/11/01 03:08:53;;;;;;;;;1.50;0.50;;;;;11.12;86.31;99721.09;5059631;28;45728;-59
2021/11/01 03:11:19;;;;;;;;;2.00;1.50;;;;;11.11;86.69;99714.22;5060621;28;45355;-58
2021/11/01 03:13:46;;;;;;;;;4.25;1.00;;;;;11.08;86.52;99712.59;5060661;28;45533;-59
2021/11/01 03:16:12;;;;;;;;;1.25;1.00;;;;;11.09;86.64;99705.66;5060376;28;45379;-58
2021/11/01 03:18:46;;;;;;;;;1.00;1.00;;;;;11.09;86.43;99714.28;5050134;28;45711;-58
2021/11/01 03:21:15;;;;;;;;;2.25;1.75;;;;;11.10;86.56;99718.59;5058816;28;45438;-59
2021/11/01 03:23:46;;;;;;;;;3.00;1.25;;;;;11.12;86.66;99713.31;5051725;28;45345;-60
2021/11/01 03:26:16;;;;;;;;;1.00;1.00;;;;;11.12;86.64;99721.94;5060190;28;46486;-60
2021/11/01 03:28:43;;;;;;;;;2.25;2.00;;;;;11.12;86.73;99724.56;5060312;28;45896;-60
2021/11/01 03:31:11;;;;;;;;;6.50;1.25;;;;;11.12;86.64;99714.16;5060470;28;45175;-58
2021/11/01 03:33:38;;;;;;;;;6.50;3.00;;;;;11.11;86.69;99717.66;5060097;28;45528;-59
2021/11/01 03:36:08;;;;;;;;;2.50;1.00;;;;;11.12;86.52;99719.34;5054313;28;46141;-58
2021/11/01 03:38:36;;;;;;;;;1.50;0.00;;;;;11.11;86.76;99722.88;5057119;28;45585;-58
2021/11/01 03:41:08;;;;;;;;;2.25;1.00;;;;;11.12;86.50;99724.56;5060194;28;45488;-58
2021/11/01 03:43:41;;;;;;;;;3.50;1.00;;;;;11.08;86.35;99730.81;5060111;28;45398;-58
2021/11/01 03:46:08;;;;;;;;;3.25;2.00;;;;;11.07;86.70;99743.88;5060028;28;46108;-59
2021/11/01 03:48:37;;;;;;;;;1.00;1.00;;;;;11.06;86.53;99737.84;5060052;28;45616;-58
2021/11/01 03:51:13;;;;;;;;;1.50;1.50;;;;;11.07;86.86;99747.31;5052024;28;45482;-59
2021/11/01 03:53:39;;;;;;;;;1.25;1.00;;;;;11.07;86.96;99741.28;5059561;28;45436;-59
2021/11/01 03:56:05;;;;;;;;;1.50;1.50;;;;;11.07;86.77;99744.72;5059526;28;46059;-59
2021/11/01 03:58:32;;;;;;;;;1.00;1.00;;;;;11.10;86.82;99741.13;5058888;28;45224;-59
2021/11/01 04:00:58;;;;;;;;;0.50;0.00;;;;;11.12;86.91;99744.50;5059839;28;45267;-60
2021/11/01 04:03:26;;;;;;;;;4.75;1.00;;;;;11.10;86.45;99749.78;5058381;28;45231;-60
2021/11/01 04:05:57;;;;;;;;;2.00;1.25;;;;;11.09;86.36;99752.44;5058870;28;46144;-59
2021/11/01 04:08:23;;;;;;;;;5.00;0.00;;;;;11.09;86.71;99750.69;5058795;28;45719;-59
2021/11/01 04:10:49;;;;;;;;;0.25;0.25;;;;;11.08;86.48;99762.00;5059705;28;45398;-60
2021/11/01 04:13:15;;;;;;;;;2.00;1.50;;;;;11.11;86.32;99756.66;5059806;28;45318;-60
2021/11/01 04:15:45;;;;;;;;;2.25;0.50;;;;;11.15;86.21;99760.81;5059460;28;46055;-60
2021/11/01 04:18:17;;;;;;;;;2.75;0.25;;;;;11.14;86.36;99761.72;5059715;28;45283;-60
2021/11/01 04:23:13;;;;;;;;;2.00;1.00;;;;;11.12;85.63;99747.94;5054911;28;45218;-60
2021/11/01 04:25:39;;;;;;;;;3.25;1.75;;;;;11.12;85.92;99763.56;5055670;28;46180;-60
2021/11/01 04:28:05;;;;;;;;;1.00;1.00;;;;;11.12;85.84;99752.31;5059881;28;45402;-59
2021/11/01 04:30:38;;;;;;;;;3.75;1.00;;;;;11.12;85.74;99754.91;5060690;28;45296;-59
2021/11/01 04:33:07;;;;;;;;;3.25;1.25;;;;;11.11;85.92;99755.81;5059562;28;45453;-60
2021/11/01 04:35:36;;;;;;;;;1.00;0.50;;;;;11.11;85.90;99763.63;5057778;28;46554;-59
2021/11/01 04:38:12;;;;;;;;;2.75;1.00;;;;;11.14;85.66;99764.31;5052635;28;45228;-60
2021/11/01 04:41:01;;;;;;;;;1.25;1.00;;;;;11.15;85.40;99760.81;5058326;28;45340;-59
2021/11/01 04:54:20;;;;;;;;;2.00;1.00;;;;;11.21;85.17;99768.34;5044893;28;45383;-59
2021/11/01 04:56:46;;;;;;;;;1.25;1.25;;;;;11.26;85.17;99771.59;5060148;28;46278;-60
2021/11/01 04:59:11;;;;;;;;;5.75;2.00;;;;;11.29;84.47;99770.59;5059124;28;45277;-60
2021/11/01 05:01:41;;;;;;;;;1.00;1.00;;;;;11.28;84.56;99769.75;5060701;28;45256;-60
2021/11/01 05:04:09;;;;;;;;;0.50;0.00;;;;;11.29;84.82;99778.41;5058020;28;45355;-60
2021/11/01 05:06:41;;;;;;;;;1.00;0.00;;;;;11.32;84.51;99775.66;5058738;28;47112;-58
2021/11/01 05:09:10;;;;;;;;;1.25;0.50;;;;;11.28;83.67;99769.75;5059201;28;45280;-59
2021/11/01 05:12:25;;;;;;;;;0.00;0.00;;;;;11.27;84.30;99760.25;5059073;28;45923;-59
2021/11/01 05:19:46;;;;;;;;;4.00;1.00;;;;;11.29;84.22;99768.00;5061978;28;45314;-59
2021/11/01 05:22:28;;;;;;;;;0.25;0.25;;;;;11.31;84.64;99767.91;5061231;28;45530;-59
2021/11/01 05:25:08;;;;;;;;;0.00;0.00;;;;;11.31;84.17;99771.38;5058326;28;45255;-59
2021/11/01 05:30:11;;;;;;;;;2.00;0.00;;;;;11.34;84.51;99763.41;5062489;28;45675;-58
2021/11/01 05:32:40;;;;;;;;;0.00;0.00;;;;;11.37;84.23;99762.44;5062529;28;45412;-59
2021/11/01 05:35:06;;;;;;;;;1.50;0.25;;;;;11.37;84.32;99778.88;5062244;28;45732;-59
2021/11/01 05:37:31;;;;;;;;;1.50;0.00;;;;;11.38;84.44;99769.31;5056065;28;46171;-58
2021/11/01 05:39:56;;;;;;;;;0.00;0.00;;;;;11.38;84.66;99764.09;5055828;28;45429;-59
2021/11/01 05:42:22;;;;;;;;;1.00;1.00;;;;;11.36;84.22;99784.16;5062287;28;45311;-59
2021/11/01 05:44:47;;;;;;;;;2.50;0.00;;;;;11.29;84.03;99783.59;5061950;28;45629;-59
2021/11/01 05:47:12;;;;;;;;;1.25;1.25;;;;;11.28;84.77;99774.94;5061832;28;45435;-59
2021/11/01 05:49:39;;;;;;;;;3.00;0.00;;;;;11.30;84.93;99782.69;5062069;28;45418;-59
2021/11/01 05:52:12;;;;;;;;;0.00;0.00;;;;;11.31;84.76;99775.72;5061780;28;45362;-59
2021/11/01 05:54:38;;;;;;;;;0.75;0.75;;;;;11.35;84.86;99761.66;5061778;28;45248;-58
2021/11/01 06:07:53;;;;;;;;;1.75;1.75;;;;;11.27;84.56;99791.47;5041565;28;45372;-58
2021/11/01 06:15:47;;;;;;;;;1.50;0.00;;;;;11.20;84.65;99807.41;5061676;28;45354;-58
2021/11/01 06:18:12;;;;;;;;;0.00;0.00;;;;;11.17;84.70;99800.59;5061665;28;46279;-58
2021/11/01 06:20:38;;;;;;;;;1.75;0.00;;;;;11.17;84.93;99797.16;5059871;28;45287;-59
2021/11/01 06:23:04;;;;;;;;;2.25;0.00;;;;;11.11;84.86;99795.66;5050200;28;45434;-59
2021/11/01 06:25:29;;;;;;;;;0.25;0.25;;;;;11.06;84.84;99789.84;5055751;28;45532;-58
2021/11/01 06:27:55;;;;;;;;;0.00;0.00;;;;;11.08;84.94;99794.97;5060891;28;46065;-57
2021/11/01 06:30:38;;;;;;;;;1.25;0.00;;;;;11.07;84.87;99795.88;5061085;28;45402;-58
2021/11/01 06:57:47;;;;;;;;;0.75;0.75;;;;;10.97;85.81;99801.47;5061038;28;45283;-59
2021/11/01 07:16:52;;;;;;;;;1.50;1.50;;;;;11.18;85.88;99825.69;5048921;28;45445;-61
2021/11/01 07:24:53;;;;;;;;;2.25;1.00;;;;;11.26;85.85;99821.00;5051987;28;45781;-59
2021/11/01 08:22:09;;;;;;;;;3.00;0.75;;;;;12.01;83.07;99859.19;5059602;28;45396;-60
2021/11/01 08:35:55;;;;;;;;;0.00;0.00;;;;;12.19;80.22;99860.06;5050269;28;45288;-59
2021/11/01 08:41:11;;;;;;;;;1.75;0.00;;;;;12.32;81.75;99857.72;5049672;28;45786;-64
2021/11/01 08:46:09;;;;;;;;;0.00;0.00;;;;;12.43;80.56;99866.72;5051005;28;45259;-59
2021/11/01 08:48:47;;;;;;;;;0.50;0.00;;;;;12.52;80.49;99869.78;5048759;28;46303;-61
2021/11/01 09:24:02;;;;;;;;;0.00;0.00;;;;;13.60;75.07;99857.19;5057180;28;45504;-59
2021/11/01 09:26:32;;;;;;;;;3.00;1.00;;;;;13.66;73.55;99854.28;5063629;28;45292;-58
2021/11/01 09:29:12;;;;;;;;;2.75;1.00;;;;;13.79;74.75;99854.44;5062245;28;45413;-57
2021/11/01 09:42:47;;;;;;;;;1.00;1.00;;;;;16.02;66.20;99855.16;5062079;28;45836;-60
2021/11/01 09:45:13;;;;;;;;;2.50;0.00;;;;;16.15;66.60;99849.94;5059278;28;45572;-60
2021/11/01 09:47:42;;;;;;;;;1.25;0.00;;;;;15.98;63.39;99845.78;5050041;28;45280;-58
2021/11/01 09:50:09;;;;;;;;;1.75;1.50;;;;;15.68;63.70;99855.59;5050270;28;45509;-62
2021/11/01 09:52:34;;;;;;;;;2.50;1.00;;;;;15.42;65.57;99860.66;5050048;28;45517;-63
2021/11/01 09:55:15;;;;;;;;;0.00;0.00;;;;;15.30;66.21;99860.56;5051991;28;45491;-59
2021/11/01 09:59:10;;;;;;;;;3.00;1.00;;;;;15.33;67.59;99858.59;5053114;28;45243;-60
2021/11/01 10:00:26;;;;;;;;;1.50;1.50;;;;;15.82;68.03;99847.72;5050624;28;45442;-65
2021/11/01 10:02:52;;;;;;;;;3.75;2.00;;;;;17.29;68.17;99834.41;5051737;28;48071;-60
2021/11/01 10:05:25;;;;;;;;;2.25;1.00;;;;;17.68;63.74;99839.63;5051464;28;45367;-63
2021/11/01 10:07:50;;;;;;;;;2.50;1.75;;;;;17.73;58.75;99835.72;5048568;28;45295;-59
2021/11/01 10:10:15;;;;;;;;;0.00;0.00;;;;;17.37;58.77;99838.28;5051345;28;45281;-59
2021/11/01 10:12:44;;;;;;;;;0.75;0.25;;;;;17.39;58.15;99839.00;5053163;28;45194;-59
2021/11/01 10:18:12;;;;;;;;;1.00;1.00;;;;;17.97;58.16;99848.03;5052678;28;45357;-59
2021/11/01 10:20:46;;;;;;;;;1.00;0.25;;;;;18.68;58.80;99855.09;5048954;28;45334;-61
2021/11/01 10:23:22;;;;;;;;;1.00;1.00;;;;;19.17;52.45;99846.91;5049630;28;46329;-59
2021/11/01 10:25:48;;;;;;;;;5.25;2.25;;;;;18.93;54.33;99856.69;5050399;28;45366;-60
2021/11/01 10:28:14;;;;;;;;;1.25;0.00;;;;;18.84;50.39;99845.94;5055640;28;45299;-59
2021/11/01 10:30:40;;;;;;;;;0.00;0.00;;;;;18.54;52.25;99843.75;5060057;28;45337;-59
2021/11/01 10:33:09;;;;;;;;;1.75;1.00;;;;;18.01;52.45;99850.31;5048372;28;46924;-60
2021/11/01 10:35:39;;;;;;;;;1.75;1.00;;;;;17.66;54.82;99841.50;5059080;28;45286;-60
2021/11/01 10:38:24;;;;;;;;;1.25;0.00;;;;;18.55;56.93;99839.34;5054009;28;45485;-61
2021/11/01 10:44:19;;;;;;;;;1.25;0.25;;;;;19.03;50.68;99842.72;5059198;28;45396;-60
2021/11/01 11:14:44;;;;;;;;;1.00;0.00;;;;;18.52;48.41;99803.56;5050982;28;45469;-60
2021/11/01 11:27:31;;;;;;;;;0.50;0.50;;;;;20.86;43.70;99801.53;5050712;28;45449;-62
2021/11/01 11:48:37;;;;;;;;;2.00;0.00;;;;;17.89;46.46;99807.38;5046602;28;45911;-62
2021/11/01 11:51:10;;;;;;;;;1.00;0.00;;;;;17.58;46.90;99813.97;5047904;28;45320;-61
2021/11/01 11:53:51;;;;;;;;;0.00;0.00;;;;;17.13;47.65;99812.78;5049387;28;45326;-60
2021/11/01 11:56:17;;;;;;;;;1.50;0.50;;;;;16.96;48.99;99813.09;5047534;28;45514;-59
2021/11/01 11:58:48;;;;;;;;;1.00;0.00;;;;;16.87;49.47;99811.13;5046073;28;45450;-66
2021/11/01 12:01:36;;;;;;;;;0.00;0.00;;;;;16.64;49.78;99816.13;5051592;28;45712;-60
2021/11/01 12:04:05;;;;;;;;;2.50;1.00;;;;;16.35;50.38;99798.84;5047561;28;45363;-61
2021/11/01 12:06:59;;;;;;;;;1.00;0.00;;;;;16.11;51.38;99810.00;5047163;28;45823;-61
2021/11/01 12:09:28;;;;;;;;;1.50;0.00;;;;;15.97;51.92;99802.19;5049057;28;46373;-59
2021/11/01 12:17:21;;;;;;;;;0.25;0.00;;;;;15.75;53.61;99784.38;5051613;28;45491;-61
2021/11/01 12:19:46;;;;;;;;;1.00;1.00;;;;;15.79;53.61;99785.03;5058589;28;46056;-64
2021/11/01 12:22:25;;;;;;;;;0.00;0.00;;;;;15.77;53.35;99776.44;5051660;28;45266;-66
2021/11/01 12:24:51;;;;;;;;;1.75;1.00;;;;;15.84;53.41;99775.09;5049198;28;45366;-63
2021/11/01 12:27:18;;;;;;;;;1.25;1.00;;;;;15.90;53.39;99772.09;5057933;28;45485;-68
2021/11/01 12:29:44;;;;;;;;;1.75;0.00;;;;;15.86;53.75;99773.22;5057744;28;46963;-63
2021/11/01 12:32:12;;;;;;;;;2.00;0.00;;;;;15.88;53.96;99773.97;5058532;28;45764;-63
2021/11/01 12:35:05;;;;;;;;;2.00;0.00;;;;;15.99;54.38;99763.59;5057236;28;45485;-65
2021/11/01 12:37:50;;;;;;;;;1.00;0.00;;;;;15.95;54.20;99770.00;5047498;28;45324;-61
2021/11/01 12:40:25;;;;;;;;;2.00;1.75;;;;;15.97;54.17;99757.63;5058050;28;46352;-62
2021/11/01 12:57:07;;;;;;;;;1.50;0.00;;;;;15.59;54.84;99744.38;5048963;28;45390;-58
2021/11/01 12:59:40;;;;;;;;;1.00;0.00;;;;;15.35;55.93;99767.69;5055837;28;45453;-59
2021/11/01 13:02:09;;;;;;;;;0.00;0.00;;;;;15.27;56.29;99753.44;5050035;28;47041;-60
2021/11/01 13:04:38;;;;;;;;;0.00;0.00;;;;;15.18;56.67;99742.56;5049473;28;45287;-63
2021/11/01 13:09:38;;;;;;;;;1.00;0.75;;;;;15.29;57.54;99747.16;5058811;28;45264;-60
2021/11/01 13:20:06;;;;;;;;;2.00;0.25;;;;;15.55;59.16;99734.19;5059091;28;45424;-61
2021/11/01 13:22:43;;;;;;;;;2.25;1.00;;;;;15.48;59.55;99723.28;5057675;28;47195;-64
2021/11/01 13:38:28;;;;;;;;;0.00;0.00;;;;;15.11;61.91;99716.91;5057165;28;45351;-70
2021/11/01 13:40:53;;;;;;;;;4.00;4.00;;;;;14.89;63.28;99720.84;5062013;28;45330;-65
2021/11/01 13:43:29;;;;;;;;;4.75;4.75;;;;;14.72;63.06;99715.78;5061248;28;45390;-66
2021/11/01 13:45:58;;;;;;;;;0.00;0.00;;;;;14.65;63.64;99716.28;5061636;28;45462;-63
2021/11/01 13:48:26;;;;;;;;;2.00;1.00;;;;;14.65;63.85;99714.50;5058632;28;45346;-63
2021/11/01 13:51:01;;;;;;;;;0.00;0.00;;;;;14.63;65.49;99724.22;5061699;28;45471;-65
2021/11/01 13:53:28;;;;;;;;;4.75;2.50;;;;;14.53;66.36;99742.22;5061558;28;46393;-68
2021/11/01 13:56:04;;;;;;;;;4.25;2.00;;;;;14.41;68.06;99750.72;5061732;28;45355;-64
2021/11/01 13:58:34;;;;;;;;;3.50;2.50;;;;;14.08;78.03;99748.34;5061350;28;45263;-64
2021/11/01 14:28:16;;;;;;;;;1.00;0.00;;;;;13.83;74.29;99727.16;5050984;28;45729;-61
2021/11/01 15:13:30;;;;;;;;;0.00;0.00;;;;;11.73;79.24;99749.44;5061742;28;45256;-62
2021/11/01 15:16:09;;;;;;;;;1.00;0.00;;;;;11.79;78.96;99765.63;5059885;28;45557;-62
2021/11/01 16:20:51;;;;;;;;;0.00;0.00;;;;;13.88;67.97;99746.88;5015678;28;45344;-59
2021/11/01 16:23:35;;;;;;;;;2.50;1.25;;;;;13.50;68.29;99753.38;5016431;28;47045;-61
2021/11/01 16:28:43;;;;;;;;;1.00;1.00;;;;;12.97;70.86;99759.69;5050080;28;45396;-60
2021/11/01 16:33:43;;;;;;;;;3.75;2.00;;;;;12.70;72.53;99759.38;5050254;28;45477;-60
2021/11/01 16:36:17;;;;;;;;;2.00;2.00;;;;;12.59;73.28;99756.47;5049639;28;45755;-60
2021/11/01 16:38:51;;;;;;;;;2.00;2.00;;;;;12.52;73.81;99758.56;5054582;28;45349;-59
2021/11/01 16:41:18;;;;;;;;;4.75;2.50;;;;;12.42;77.86;99758.19;5059376;28;45403;-58
2021/11/01 16:43:45;;;;;;;;;6.00;4.00;;;;;12.27;75.95;99758.97;5059233;28;45470;-58
2021/11/01 16:46:10;;;;;;;;;2.25;1.00;;;;;12.14;76.01;99761.31;5059237;28;45738;-60
2021/11/01 16:48:37;;;;;;;;;1.00;1.00;;;;;12.05;77.59;99766.16;5055919;28;45430;-60
2021/11/01 16:51:04;;;;;;;;;0.25;0.25;;;;;11.95;78.24;99764.91;5050716;28;45406;-59
2021/11/01 16:53:32;;;;;;;;;2.75;1.00;;;;;11.88;77.97;99764.38;5059933;28;46234;-59
2021/11/01 16:56:10;;;;;;;;;1.25;1.00;;;;;11.86;78.23;99767.03;5057265;28;45668;-59
2021/11/01 16:58:44;;;;;;;;;1.25;1.25;;;;;11.84;78.81;99773.25;5050186;28;45358;-59
2021/11/01 17:01:14;;;;;;;;;1.00;1.00;;;;;11.82;79.02;99772.47;5059693;28;45310;-59
2021/11/01 17:03:51;;;;;;;;;2.00;2.00;;;;;11.81;79.27;99779.44;5057231;28;46180;-58
2021/11/01 17:06:37;;;;;;;;;6.25;2.00;;;;;11.82;79.20;99775.09;5058586;28;45367;-58
2021/11/01 17:22:44;;;;;;;;;1.75;1.75;;;;;11.62;81.26;99769.94;5062088;28;45305;-59
2021/11/01 17:25:21;;;;;;;;;3.00;3.00;;;;;11.62;81.14;99770.78;5055086;28;46052;-59
2021/11/01 17:28:20;;;;;;;;;4.00;2.00;;;;;11.62;81.41;99763.00;5061931;28;45646;-58
2021/11/01 18:45:52;;;;;;;;;8.75;4.75;;;;;11.03;87.65;99818.56;5060032;28;45255;-63
2021/11/01 18:51:17;;;;;;;;;4.25;4.00;;;;;11.05;87.26;99811.56;5054079;28;45419;-63
2021/11/01 18:53:49;;;;;;;;;3.25;3.25;;;;;11.05;87.09;99814.16;5060387;28;47073;-65
2021/11/01 18:56:14;;;;;;;;;4.75;4.75;;;;;11.11;87.06;99824.28;5060554;28;46176;-66
2021/11/01 18:58:42;;;;;;;;;7.75;7.00;;;;;11.13;86.94;99817.25;5060933;28;45291;-65
2021/11/01 19:01:11;;;;;;;;;7.00;7.00;;;;;11.14;87.19;99818.94;5047559;28;45500;-63
2021/11/01 19:03:48;;;;;;;;;11.00;7.75;;;;;11.16;87.08;99817.09;5060935;28;46252;-62
2021/11/01 19:06:26;;;;;;;;;8.75;7.75;;;;;11.18;86.92;99819.63;5060141;28;45270;-60
2021/11/01 20:03:46;;;;;;;;;18.50;14.75;;;;;11.16;87.08;99798.06;5058076;28;45240;-58
2021/11/01 21:26:18;;;;;;;;;9.50;8.00;;;;;11.48;84.19;99775.78;5061038;28;45402;-61
2021/11/01 21:28:43;;;;;;;;;4.75;4.50;;;;;11.45;82.46;99792.41;5059848;28;45225;-62
2021/11/01 21:31:09;;;;;;;;;4.25;3.50;;;;;11.35;81.79;99785.91;5060200;28;45492;-61
2021/11/01 21:33:35;;;;;;;;;7.00;4.50;;;;;11.29;82.96;99791.41;5059299;28;45464;-61
2021/11/01 21:36:06;;;;;;;;;7.25;6.00;;;;;11.23;83.64;99781.28;5056198;28;45586;-61
2021/11/01 21:38:32;;;;;;;;;3.50;3.00;;;;;11.25;83.07;99787.25;5055984;28;45827;-62
2021/11/01 21:40:58;;;;;;;;;4.25;2.75;;;;;11.19;83.02;99777.94;5062474;28;45368;-61
2021/11/01 21:43:23;;;;;;;;;3.75;3.50;;;;;11.19;83.44;99774.50;5051655;28;45166;-62
2021/11/01 21:45:49;;;;;;;;;4.00;2.25;;;;;11.21;83.50;99768.34;5055927;28;46094;-62
2021/11/01 21:48:15;;;;;;;;;4.50;2.50;;;;;11.26;83.47;99770.75;5053710;28;45403;-62
2021/11/01 21:50:45;;;;;;;;;6.00;4.00;;;;;11.31;82.89;99757.50;5051616;28;45469;-62
2021/11/01 21:53:12;;;;;;;;;4.75;3.75;;;;;11.35;83.19;99761.66;5059228;28;46303;-62
2021/11/01 21:55:38;;;;;;;;;3.00;3.00;;;;;11.37;83.29;99758.06;5061676;28;45888;-62
2021/11/01 21:58:12;;;;;;;;;5.25;3.00;;;;;11.45;83.30;99755.13;5061680;28;45226;-62
2021/11/01 22:38:10;;;;;;;;;3.00;3.00;;;;;11.59;81.21;99731.88;5061264;28;45395;-62
2021/11/01 22:40:17;;;;;;;;;4.25;3.00;;;;;11.60;81.70;99733.56;5061035;28;46797;-62
2021/11/01 22:56:46;;;;;;;;;4.00;4.00;;;;;11.54;82.47;99723.47;5061068;28;45422;-61
2021/11/01 22:58:50;;;;;;;;;8.25;4.75;;;;;11.50;82.54;99714.97;5045411;28;46543;-61
2021/11/01 23:01:27;;;;;;;;;7.75;5.75;;;;;11.48;82.67;99710.75;5060412;28;45367;-56
2021/11/01 23:04:04;;;;;;;;;15.00;11.00;;;;;11.48;82.83;99708.16;5059608;28;45381;-60
2021/11/01 23:33:48;;;;;;;;;5.25;3.00;;;;;11.31;83.17;99698.53;5048362;28;45901;-62
2021/11/01 23:36:14;;;;;;;;;2.00;2.00;;;;;11.28;83.77;99699.53;5047558;28;45568;-60
2021/11/01 23:38:39;;;;;;;;;3.75;2.50;;;;;11.27;83.54;99694.41;5051299;28;45585;-58
2021/11/01 23:41:05;;;;;;;;;2.50;2.00;;;;;11.27;83.81;99690.03;5048906;28;45448;-57
2021/11/01 23:43:30;;;;;;;;;4.00;2.00;;;;;11.30;83.88;99683.84;5051301;28;45374;-59
2021/11/01 23:45:56;;;;;;;;;2.00;2.00;;;;;11.28;83.41;99686.53;5047840;28;45264;-60
2021/11/01 23:48:22;;;;;;;;;3.25;3.25;;;;;11.26;83.95;99693.56;5048582;28;45272;-59
2021/11/01 23:50:49;;;;;;;;;2.25;2.25;;;;;11.26;83.83;99692.72;5054089;28;46100;-59
2021/11/01 23:53:20;;;;;;;;;2.00;2.00;;;;;11.26;83.59;99684.91;5050128;28;45321;-59
2021/11/01 23:55:45;;;;;;;;;3.50;2.00;;;;;11.26;83.83;99675.34;5048468;28;45374;-58
2021/11/01 23:58:12;;;;;;;;;3.50;1.00;;;;;11.26;84.04;99683.16;5048698;28;45323;-58
